createdAt,value
2022-11-29T00:02:07.186Z,100638.03
2022-11-29T00:04:38.758Z,100641.34
2022-11-29T00:07:08.776Z,100639.56
2022-11-29T00:09:39.206Z,100632.97
2022-11-29T00:12:16.354Z,100637.03
2022-11-29T00:14:46.956Z,100642.59
2022-11-29T00:17:17.141Z,100639.41
2022-11-29T00:19:48.685Z,100648.53
2022-11-29T00:22:19.118Z,100643.78
2022-11-29T00:24:49.528Z,100646.66
2022-11-29T00:27:19.714Z,100656.91
2022-11-29T00:29:50.342Z,100662.25
2022-11-29T00:32:19.888Z,100648.59
2022-11-29T00:34:50.310Z,100641.78
2022-11-29T00:37:20.381Z,100626.31
2022-11-29T00:39:51.002Z,100658.84
2022-11-29T00:42:21.726Z,100649.31
2022-11-29T00:44:52.282Z,100651.16
2022-11-29T00:47:22.275Z,100656.84
2022-11-29T00:49:52.829Z,100655.75
2022-11-29T00:52:22.838Z,100651.50
2022-11-29T00:54:53.490Z,100655.03
2022-11-29T00:57:23.078Z,100659.88
2022-11-29T00:59:52.926Z,100658.63
2022-11-29T01:02:23.397Z,100660.25
2022-11-29T01:04:53.246Z,100660.72
2022-11-29T01:07:23.743Z,100646.25
2022-11-29T01:09:53.999Z,100649.97
2022-11-29T01:12:24.907Z,100647.81
2022-11-29T01:14:55.087Z,100643.38
2022-11-29T01:17:25.834Z,100648.78
2022-11-29T01:19:55.939Z,100645.19
2022-11-29T01:22:26.586Z,100651.06
2022-11-29T01:24:56.396Z,100650.31
2022-11-29T01:27:27.088Z,100645.63
2022-11-29T01:29:57.535Z,100650.09
2022-11-29T01:32:28.342Z,100629.81
2022-11-29T01:34:58.486Z,100636.78
2022-11-29T01:37:31.027Z,100627.81
2022-11-29T01:40:01.055Z,100634.34
2022-11-29T01:42:31.728Z,100629.56
2022-11-29T01:45:06.036Z,100627.78
2022-11-29T01:47:45.074Z,100625.75
2022-11-29T01:50:15.839Z,100602.91
2022-11-29T01:52:47.622Z,100622.16
2022-11-29T01:55:17.887Z,100621.44
2022-11-29T01:57:48.956Z,100611.88
2022-11-29T02:00:20.946Z,100613.75
2022-11-29T02:03:04.432Z,100610.63
2022-11-29T02:05:34.990Z,100610.16
2022-11-29T02:08:05.908Z,100611.88
2022-11-29T02:11:09.005Z,100604.06
2022-11-29T02:13:45.901Z,100612.13
2022-11-29T02:16:28.583Z,100581.38
2022-11-29T02:19:40.262Z,100574.75
2022-11-29T02:22:39.340Z,100590.06
2022-11-29T02:25:41.712Z,100584.38
2022-11-29T02:28:43.753Z,100587.84
2022-11-29T02:31:58.640Z,100577.19
2022-11-29T02:35:05.565Z,100567.97
2022-11-29T02:37:56.090Z,100570.91
2022-11-29T02:40:47.372Z,100567.97
2022-11-29T02:43:46.290Z,100555.56
2022-11-29T02:46:40.301Z,100555.13
2022-11-29T02:49:37.643Z,100561.47
2022-11-29T02:52:14.697Z,100550.19
2022-11-29T02:55:14.665Z,100542.78
2022-11-29T02:57:57.811Z,100539.13
2022-11-29T03:00:28.648Z,100538.06
2022-11-29T03:03:20.074Z,100537.88
2022-11-29T03:05:59.564Z,100533.94
2022-11-29T03:09:02.534Z,100532.50
2022-11-29T03:12:04.739Z,100539.22
2022-11-29T03:14:53.324Z,100524.00
2022-11-29T03:17:58.986Z,100518.44
2022-11-29T03:20:54.518Z,100520.19
2022-11-29T03:23:45.787Z,100511.72
2022-11-29T03:26:37.274Z,100510.38
2022-11-29T03:29:12.869Z,100509.94
2022-11-29T03:31:52.148Z,100499.28
2022-11-29T03:34:30.854Z,100501.72
2022-11-29T03:37:19.751Z,100502.69
2022-11-29T03:40:06.205Z,100503.88
2022-11-29T03:42:52.599Z,100495.78
2022-11-29T03:45:53.495Z,100496.28
2022-11-29T03:48:51.255Z,100487.53
2022-11-29T03:51:27.809Z,100484.63
2022-11-29T03:54:09.822Z,100490.47
2022-11-29T03:56:42.081Z,100482.94
2022-11-29T03:59:31.243Z,100482.44
2022-11-29T04:02:22.135Z,100471.47
2022-11-29T04:05:36.625Z,100460.69
2022-11-29T04:08:24.420Z,100458.13
2022-11-29T04:11:35.628Z,100470.19
2022-11-29T04:14:31.912Z,100463.69
2022-11-29T04:17:36.880Z,100464.44
2022-11-29T04:20:06.348Z,100463.19
2022-11-29T04:23:04.710Z,100462.41
2022-11-29T04:26:02.101Z,100455.00
2022-11-29T04:28:46.910Z,100455.78
2022-11-29T04:31:51.091Z,100445.00
2022-11-29T04:34:43.189Z,100439.63
2022-11-29T04:37:25.121Z,100430.75
2022-11-29T04:40:08.189Z,100425.72
2022-11-29T04:42:53.141Z,100403.78
2022-11-29T04:45:44.153Z,100408.97
2022-11-29T04:48:17.239Z,100401.06
2022-11-29T04:50:56.785Z,100403.88
2022-11-29T04:53:31.843Z,100391.19
2022-11-29T04:56:27.768Z,100391.94
2022-11-29T04:59:29.782Z,100394.19
2022-11-29T05:02:25.679Z,100390.53
2022-11-29T05:04:58.528Z,100394.09
2022-11-29T05:07:46.395Z,100384.06
2022-11-29T05:10:35.404Z,100380.19
2022-11-29T05:13:13.684Z,100371.25
2022-11-29T05:16:12.901Z,100357.34
2022-11-29T05:19:19.636Z,100363.38
2022-11-29T05:22:08.006Z,100360.88
2022-11-29T05:24:54.062Z,100354.22
2022-11-29T05:27:43.381Z,100353.47
2022-11-29T05:30:25.021Z,100354.28
2022-11-29T05:33:04.428Z,100358.59
2022-11-29T05:35:59.818Z,100351.19
2022-11-29T05:38:49.463Z,100350.75
2022-11-29T05:41:24.850Z,100345.41
2022-11-29T05:44:09.457Z,100347.19
2022-11-29T05:47:02.359Z,100331.25
2022-11-29T05:49:41.665Z,100336.78
2022-11-29T05:52:31.364Z,100335.97
2022-11-29T05:55:28.828Z,100324.72
2022-11-29T05:58:30.256Z,100328.97
2022-11-29T06:01:04.298Z,100320.84
2022-11-29T06:04:14.730Z,100326.84
2022-11-29T06:07:08.631Z,100322.03
2022-11-29T06:10:05.109Z,100328.22
2022-11-29T06:12:37.112Z,100326.09
2022-11-29T06:15:35.817Z,100307.88
2022-11-29T06:18:24.788Z,100306.22
2022-11-29T06:21:17.593Z,100308.13
2022-11-29T06:23:58.607Z,100315.28
2022-11-29T06:26:56.614Z,100312.34
2022-11-29T06:29:43.908Z,100299.44
2022-11-29T06:32:23.405Z,100300.78
2022-11-29T06:35:35.986Z,100296.31
2022-11-29T06:38:18.032Z,100289.16
2022-11-29T06:40:48.851Z,100294.59
2022-11-29T06:43:19.297Z,100297.56
2022-11-29T06:45:54.397Z,100289.34
2022-11-29T06:48:28.804Z,100291.88
2022-11-29T06:51:09.038Z,100289.78
2022-11-29T06:54:00.947Z,100289.91
2022-11-29T06:57:02.938Z,100291.16
2022-11-29T07:00:12.875Z,100289.50
2022-11-29T07:03:01.821Z,100280.16
2022-11-29T07:05:34.324Z,100273.16
2022-11-29T07:08:08.211Z,100280.44
2022-11-29T07:10:41.067Z,100273.19
2022-11-29T07:13:15.195Z,100297.28
2022-11-29T07:16:16.965Z,100291.69
2022-11-29T07:19:02.371Z,100285.22
2022-11-29T07:22:07.457Z,100290.91
2022-11-29T07:25:02.489Z,100281.59
2022-11-29T07:27:54.556Z,100254.88
2022-11-29T07:30:35.130Z,100278.84
2022-11-29T07:33:11.233Z,100279.06
2022-11-29T07:35:50.235Z,100278.25
2022-11-29T07:38:30.526Z,100281.47
2022-11-29T07:41:14.278Z,100279.13
2022-11-29T07:44:25.436Z,100279.56
2022-11-29T07:46:58.469Z,100280.72
2022-11-29T07:49:28.578Z,100285.72
2022-11-29T07:51:58.540Z,100287.63
2022-11-29T07:54:29.146Z,100285.44
2022-11-29T07:56:58.618Z,100263.31
2022-11-29T07:59:28.942Z,100274.03
2022-11-29T08:01:59.983Z,100273.00
2022-11-29T08:04:31.077Z,100274.91
2022-11-29T08:07:01.920Z,100275.88
2022-11-29T08:09:32.335Z,100277.00
2022-11-29T08:12:02.406Z,100281.25
2022-11-29T08:14:36.005Z,100288.13
2022-11-29T08:17:06.079Z,100274.22
2022-11-29T08:19:36.604Z,100268.81
2022-11-29T08:22:06.554Z,100273.03
2022-11-29T08:24:36.408Z,100286.19
2022-11-29T08:27:07.067Z,100286.94
2022-11-29T08:29:36.706Z,100290.72
2022-11-29T08:32:07.563Z,100281.75
2022-11-29T08:34:38.428Z,100294.06
2022-11-29T08:37:09.017Z,100297.41
2022-11-29T08:39:39.121Z,100274.97
2022-11-29T08:42:09.692Z,100301.13
2022-11-29T08:44:39.331Z,100297.41
2022-11-29T08:47:27.482Z,100288.69
2022-11-29T08:50:04.192Z,100296.44
2022-11-29T08:52:57.843Z,100305.50
2022-11-29T08:55:32.059Z,100310.66
2022-11-29T08:58:08.025Z,100325.97
2022-11-29T09:00:39.617Z,100325.78
2022-11-29T09:03:30.540Z,100305.53
2022-11-29T09:06:09.008Z,100346.94
2022-11-29T09:08:44.765Z,100350.44
2022-11-29T09:11:21.072Z,100361.38
2022-11-29T09:13:54.194Z,100353.53
2022-11-29T09:16:27.906Z,100367.13
2022-11-29T09:18:58.549Z,100380.63
2022-11-29T09:21:33.321Z,100368.94
2022-11-29T09:24:07.506Z,100378.59
2022-11-29T09:26:41.772Z,100380.28
2022-11-29T09:29:13.511Z,100378.09
2022-11-29T09:31:51.652Z,100369.50
2022-11-29T09:34:22.455Z,100375.25
2022-11-29T09:36:52.670Z,100368.78
2022-11-29T09:39:23.311Z,100352.50
2022-11-29T09:42:12.228Z,100371.94
2022-11-29T09:45:04.448Z,100372.66
2022-11-29T09:48:10.374Z,100370.41
2022-11-29T09:51:14.455Z,100372.56
2022-11-29T09:53:59.147Z,100376.97
2022-11-29T09:56:39.939Z,100379.94
2022-11-29T09:59:37.829Z,100385.25
2022-11-29T10:02:23.867Z,100388.19
2022-11-29T10:05:10.654Z,100393.50
2022-11-29T10:08:05.797Z,100402.22
2022-11-29T10:10:44.414Z,100407.06
2022-11-29T10:13:24.923Z,100409.09
2022-11-29T10:15:59.755Z,100414.06
2022-11-29T10:18:46.862Z,100419.94
2022-11-29T10:21:21.873Z,100429.69
2022-11-29T10:23:58.623Z,100431.25
2022-11-29T10:26:34.851Z,100435.63
2022-11-29T10:29:06.302Z,100435.97
2022-11-29T10:31:44.473Z,100433.47
2022-11-29T10:34:21.586Z,100437.34
2022-11-29T10:36:51.172Z,100438.19
2022-11-29T10:39:43.355Z,100438.81
2022-11-29T10:42:38.042Z,100437.19
2022-11-29T10:45:35.281Z,100447.47
2022-11-29T10:48:27.451Z,100415.16
2022-11-29T10:50:57.521Z,100433.28
2022-11-29T10:53:28.539Z,100432.78
2022-11-29T10:56:14.957Z,100422.44
2022-11-29T10:59:06.257Z,100413.31
2022-11-29T11:01:55.228Z,100417.78
2022-11-29T11:04:36.853Z,100421.44
2022-11-29T11:07:08.253Z,100417.06
2022-11-29T11:09:50.693Z,100422.94
2022-11-29T11:12:25.073Z,100416.38
2022-11-29T11:15:29.401Z,100386.69
2022-11-29T11:18:06.442Z,100409.31
2022-11-29T11:20:41.556Z,100411.25
2022-11-29T11:23:31.746Z,100410.47
2022-11-29T11:26:07.898Z,100401.63
2022-11-29T11:28:56.183Z,100409.09
2022-11-29T11:31:39.382Z,100410.94
2022-11-29T11:34:28.453Z,100411.88
2022-11-29T11:37:26.550Z,100405.34
2022-11-29T11:40:02.595Z,100408.22
2022-11-29T11:42:42.130Z,100420.97
2022-11-29T11:45:12.509Z,100424.03
2022-11-29T11:47:51.777Z,100429.63
2022-11-29T11:50:32.607Z,100446.16
2022-11-29T11:53:25.079Z,100431.25
2022-11-29T11:56:02.803Z,100447.94
2022-11-29T11:58:46.075Z,100446.94
2022-11-29T12:01:38.743Z,100455.06
2022-11-29T12:04:26.530Z,100422.00
2022-11-29T12:07:02.174Z,100440.53
2022-11-29T12:09:51.517Z,100429.41
2022-11-29T12:12:39.933Z,100418.06
2022-11-29T12:15:16.403Z,100421.03
2022-11-29T12:18:13.614Z,100427.88
2022-11-29T12:20:52.982Z,100427.81
2022-11-29T12:23:59.137Z,100403.34
2022-11-29T12:26:57.003Z,100432.03
2022-11-29T12:29:32.001Z,100425.84
2022-11-29T12:32:02.137Z,100443.09
2022-11-29T12:35:13.629Z,100436.28
2022-11-29T12:38:14.825Z,100437.81
2022-11-29T12:41:20.513Z,100450.56
2022-11-29T12:44:18.106Z,100438.19
2022-11-29T12:47:34.486Z,100444.00
2022-11-29T12:50:06.202Z,100435.41
2022-11-29T12:53:00.761Z,100440.78
2022-11-29T12:55:37.133Z,100446.06
2022-11-29T12:58:29.440Z,100446.97
2022-11-29T13:01:14.535Z,100433.44
2022-11-29T13:04:05.836Z,100433.56
2022-11-29T13:07:00.401Z,100431.38
2022-11-29T13:09:45.737Z,100427.28
2022-11-29T13:12:24.738Z,100425.56
2022-11-29T13:15:10.858Z,100426.50
2022-11-29T13:17:47.035Z,100394.78
2022-11-29T13:20:33.621Z,100426.59
2022-11-29T13:23:39.103Z,100415.56
2022-11-29T13:26:18.196Z,100421.25
2022-11-29T13:28:48.346Z,100424.81
2022-11-29T13:31:26.677Z,100408.69
2022-11-29T13:34:08.682Z,100412.44
2022-11-29T13:36:54.127Z,100388.94
2022-11-29T13:39:49.703Z,100411.00
2022-11-29T13:43:06.613Z,100399.69
2022-11-29T13:45:39.479Z,100398.09
2022-11-29T13:48:30.743Z,100398.41
2022-11-29T13:51:21.110Z,100397.63
2022-11-29T13:53:52.261Z,100394.88
2022-11-29T13:56:43.774Z,100399.09
2022-11-29T13:59:28.846Z,100399.94
2022-11-29T14:02:00.297Z,100395.44
2022-11-29T14:04:36.164Z,100394.16
2022-11-29T14:07:12.719Z,100392.75
2022-11-29T14:10:06.434Z,100391.44
2022-11-29T14:12:51.978Z,100385.56
2022-11-29T14:15:30.218Z,100379.72
2022-11-29T14:18:06.439Z,100379.72
2022-11-29T14:20:59.851Z,100375.94
2022-11-29T14:23:36.194Z,100371.88
2022-11-29T14:26:06.595Z,100366.34
2022-11-29T14:28:40.243Z,100374.06
2022-11-29T14:31:11.600Z,100374.34
2022-11-29T14:34:15.391Z,100363.91
2022-11-29T14:37:05.833Z,100360.56
2022-11-29T14:39:49.444Z,100364.50
2022-11-29T14:42:31.129Z,100363.50
2022-11-29T14:45:05.835Z,100361.91
2022-11-29T14:47:50.106Z,100356.28
2022-11-29T14:50:39.121Z,100356.06
2022-11-29T14:53:30.706Z,100351.09
2022-11-29T14:56:31.784Z,100345.47
2022-11-29T14:59:38.937Z,100341.72
2022-11-29T15:02:49.788Z,100342.94
2022-11-29T15:05:22.671Z,100320.13
2022-11-29T15:08:10.733Z,100331.72
2022-11-29T15:10:45.811Z,100322.91
2022-11-29T15:13:39.762Z,100332.16
2022-11-29T15:16:38.461Z,100322.69
2022-11-29T15:19:24.277Z,100326.31
2022-11-29T15:22:39.068Z,100307.88
2022-11-29T15:25:15.343Z,100290.16
2022-11-29T15:27:53.629Z,100296.53
2022-11-29T15:30:42.407Z,100284.13
2022-11-29T15:33:27.834Z,100280.72
2022-11-29T15:36:10.497Z,100278.53
2022-11-29T15:39:00.328Z,100274.16
2022-11-29T15:41:36.512Z,100270.22
2022-11-29T15:44:08.663Z,100273.84
2022-11-29T15:46:39.387Z,100265.13
2022-11-29T15:49:22.024Z,100229.94
2022-11-29T15:52:07.184Z,100253.34
2022-11-29T15:54:50.574Z,100242.78
2022-11-29T15:57:29.112Z,100250.53
2022-11-29T16:00:09.203Z,100236.16
2022-11-29T16:03:07.601Z,100234.88
2022-11-29T16:05:40.353Z,100228.94
2022-11-29T16:08:22.600Z,100230.69
2022-11-29T16:10:54.573Z,100221.97
2022-11-29T16:13:32.275Z,100189.50
2022-11-29T16:16:24.098Z,100210.66
2022-11-29T16:18:54.954Z,100200.97
2022-11-29T16:21:32.885Z,100202.00
2022-11-29T16:24:22.863Z,100199.56
2022-11-29T16:26:53.353Z,100204.59
2022-11-29T16:29:35.398Z,100188.38
2022-11-29T16:32:17.605Z,100184.91
2022-11-29T16:34:48.483Z,100179.63
2022-11-29T16:37:25.142Z,100178.69
2022-11-29T16:40:02.082Z,100176.78
2022-11-29T16:42:34.654Z,100170.50
2022-11-29T16:45:35.111Z,100175.50
2022-11-29T16:48:28.901Z,100166.47
2022-11-29T16:51:14.955Z,100158.78
2022-11-29T16:53:54.705Z,100158.53
2022-11-29T16:56:27.403Z,100162.44
2022-11-29T16:59:25.404Z,100161.78
2022-11-29T17:01:54.970Z,100154.59
2022-11-29T17:04:25.613Z,100143.75
2022-11-29T17:06:57.804Z,100139.38
2022-11-29T17:09:31.541Z,100129.44
2022-11-29T17:12:03.681Z,100134.09
2022-11-29T17:14:34.540Z,100119.16
2022-11-29T17:17:05.449Z,100119.28
2022-11-29T17:19:35.553Z,100106.41
2022-11-29T17:22:05.706Z,100106.31
2022-11-29T17:24:36.391Z,100103.06
2022-11-29T17:27:07.064Z,100098.06
2022-11-29T17:29:37.610Z,100090.38
2022-11-29T17:32:10.634Z,100063.28
2022-11-29T17:34:41.431Z,100080.50
2022-11-29T17:37:11.632Z,100085.38
2022-11-29T17:39:45.976Z,100080.44
2022-11-29T17:42:16.429Z,100088.38
2022-11-29T17:44:46.957Z,100082.38
2022-11-29T17:47:17.281Z,100084.50
2022-11-29T17:49:47.978Z,100078.97
2022-11-29T17:52:18.354Z,100078.47
2022-11-29T17:54:48.947Z,100071.34
2022-11-29T17:57:19.484Z,100051.25
2022-11-29T17:59:49.989Z,100079.50
2022-11-29T18:02:20.074Z,100078.09
2022-11-29T18:04:50.681Z,100069.91
2022-11-29T18:07:20.755Z,100071.81
2022-11-29T18:09:51.987Z,100070.72
2022-11-29T18:12:23.600Z,100064.72
2022-11-29T18:14:54.130Z,100063.44
2022-11-29T18:17:24.629Z,100060.56
2022-11-29T18:19:55.161Z,100046.81
2022-11-29T18:22:25.289Z,100046.78
2022-11-29T18:25:15.807Z,100057.44
2022-11-29T18:27:45.256Z,100049.78
2022-11-29T18:30:15.206Z,100063.19
2022-11-29T18:32:46.993Z,100039.03
2022-11-29T18:35:19.760Z,100046.59
2022-11-29T18:38:14.061Z,100051.16
2022-11-29T18:40:40.572Z,100042.25
2022-11-29T18:43:10.586Z,100027.72
2022-11-29T18:45:41.235Z,100030.91
2022-11-29T18:48:12.266Z,100032.91
2022-11-29T18:50:42.923Z,100034.25
2022-11-29T18:53:14.072Z,100029.50
2022-11-29T18:55:44.506Z,100027.16
2022-11-29T18:58:14.394Z,100041.69
2022-11-29T19:00:45.661Z,100018.22
2022-11-29T19:03:15.715Z,100023.47
2022-11-29T19:05:54.021Z,100027.19
2022-11-29T19:08:24.183Z,100026.72
2022-11-29T19:10:54.653Z,100011.47
2022-11-29T19:13:25.545Z,100011.31
2022-11-29T19:15:56.847Z,99999.88
2022-11-29T19:18:26.931Z,100007.47
2022-11-29T19:21:12.308Z,100001.38
2022-11-29T19:23:43.774Z,100015.59
2022-11-29T19:26:16.642Z,100011.44
2022-11-29T19:28:47.618Z,99998.97
2022-11-29T19:31:21.054Z,99995.31
2022-11-29T19:33:52.839Z,99996.09
2022-11-29T19:36:31.559Z,100004.53
2022-11-29T19:39:03.528Z,99985.50
2022-11-29T19:41:35.806Z,100003.19
2022-11-29T19:44:10.636Z,99999.50
2022-11-29T19:46:47.054Z,100004.22
2022-11-29T19:49:17.262Z,100000.91
2022-11-29T19:51:47.764Z,99999.50
2022-11-29T19:54:17.885Z,100006.97
2022-11-29T19:56:48.422Z,100007.22
2022-11-29T19:59:19.739Z,99991.94
2022-11-29T20:01:53.075Z,99995.56
2022-11-29T20:04:23.206Z,100002.72
2022-11-29T20:06:55.601Z,99999.78
2022-11-29T20:09:27.890Z,100013.13
2022-11-29T20:11:58.362Z,100004.06
2022-11-29T20:14:28.835Z,100014.75
2022-11-29T20:16:59.379Z,100011.00
2022-11-29T20:19:29.470Z,100009.03
2022-11-29T20:21:59.362Z,100016.25
2022-11-29T20:24:32.361Z,100011.81
2022-11-29T20:27:09.314Z,100000.66
2022-11-29T20:29:39.898Z,100012.94
2022-11-29T20:32:09.982Z,100007.81
2022-11-29T20:34:40.640Z,100021.41
2022-11-29T20:37:22.261Z,100013.88
2022-11-29T20:40:25.025Z,100019.34
2022-11-29T20:43:13.946Z,100031.28
2022-11-29T20:45:44.642Z,100035.06
2022-11-29T20:48:32.751Z,100039.97
2022-11-29T20:51:04.312Z,100052.34
2022-11-29T20:53:41.901Z,100047.59
2022-11-29T20:56:13.618Z,100039.97
2022-11-29T20:58:46.825Z,100036.28
2022-11-29T21:01:18.457Z,100035.75
2022-11-29T21:03:48.720Z,100036.19
2022-11-29T21:06:19.395Z,100031.84
2022-11-29T21:08:50.024Z,100027.25
2022-11-29T21:11:20.795Z,100033.19
2022-11-29T21:13:51.134Z,100012.47
2022-11-29T21:16:29.735Z,100034.75
2022-11-29T21:19:02.981Z,100044.88
2022-11-29T21:21:45.890Z,100040.00
2022-11-29T21:24:23.614Z,100041.28
2022-11-29T21:26:54.581Z,100041.13
2022-11-29T21:29:25.626Z,100043.06
2022-11-29T21:31:57.040Z,100059.69
2022-11-29T21:34:27.166Z,100065.84
2022-11-29T21:37:00.563Z,100062.31
2022-11-29T21:39:36.736Z,100065.63
2022-11-29T21:42:06.977Z,100058.78
2022-11-29T21:44:37.549Z,100072.63
2022-11-29T21:47:07.690Z,100068.00
2022-11-29T21:49:38.346Z,100067.59
2022-11-29T21:52:11.099Z,100060.59
2022-11-29T21:54:41.809Z,100056.44
2022-11-29T21:57:11.889Z,100074.88
2022-11-29T21:59:42.337Z,100079.44
2022-11-29T22:02:12.514Z,100085.69
2022-11-29T22:04:43.185Z,100078.94
2022-11-29T22:07:13.314Z,100087.94
2022-11-29T22:09:43.831Z,100090.66
2022-11-29T22:12:33.559Z,100090.25
2022-11-29T22:15:07.306Z,100086.47
2022-11-29T22:17:37.294Z,100089.63
2022-11-29T22:20:08.840Z,100085.69
2022-11-29T22:22:38.846Z,100091.91
2022-11-29T22:25:10.354Z,100106.81
2022-11-29T22:27:40.417Z,100101.97
2022-11-29T22:30:11.147Z,100092.69
2022-11-29T22:32:43.977Z,100090.34
2022-11-29T22:35:14.385Z,100095.94
2022-11-29T22:37:44.366Z,100088.06
2022-11-29T22:40:14.952Z,100093.66
2022-11-29T22:42:44.989Z,100099.88
2022-11-29T22:45:15.488Z,100096.41
2022-11-29T22:47:45.468Z,100076.09
2022-11-29T22:50:16.703Z,100095.69
2022-11-29T22:52:47.106Z,100105.69
2022-11-29T22:55:17.152Z,100108.81
2022-11-29T22:57:47.517Z,100106.94
2022-11-29T23:00:17.321Z,100104.97
2022-11-29T23:02:47.791Z,100111.34
2022-11-29T23:05:17.258Z,100113.13
2022-11-29T23:07:48.346Z,100112.41
2022-11-29T23:10:19.209Z,100120.94
2022-11-29T23:12:50.523Z,100112.94
2022-11-29T23:15:20.915Z,100112.78
2022-11-29T23:17:50.935Z,100113.13
2022-11-29T23:20:21.286Z,100121.13
2022-11-29T23:22:52.399Z,100119.88
2022-11-29T23:25:22.869Z,100113.84
2022-11-29T23:27:55.126Z,100109.84
2022-11-29T23:30:25.588Z,100119.28
2022-11-29T23:32:57.996Z,100119.25
2022-11-29T23:35:28.626Z,100128.84
2022-11-29T23:37:58.688Z,100129.16
2022-11-29T23:40:29.949Z,100133.75
2022-11-29T23:43:03.373Z,100140.63
2022-11-29T23:45:33.799Z,100136.97
2022-11-29T23:48:03.983Z,100138.44
2022-11-29T23:50:34.354Z,100143.69
2022-11-29T23:53:03.917Z,100146.91
2022-11-29T23:55:33.774Z,100143.81
2022-11-29T23:58:04.475Z,100150.28
